createdAt,value
2022-12-09T00:00:55.607Z,7.95
2022-12-09T00:06:01.361Z,4.13
2022-12-09T00:11:08.019Z,5.00
2022-12-09T00:16:15.665Z,7.93
2022-12-09T00:21:27.645Z,8.60
2022-12-09T00:26:34.675Z,9.30
2022-12-09T00:31:40.276Z,11.35
2022-12-09T00:36:46.056Z,6.80
2022-12-09T00:41:52.133Z,11.60
2022-12-09T00:46:58.480Z,9.15
2022-12-09T00:52:04.360Z,8.50
2022-12-09T00:57:10.123Z,8.75
2022-12-09T01:02:15.873Z,13.23
2022-12-09T01:07:21.467Z,12.15
2022-12-09T01:12:27.369Z,12.82
2022-12-09T01:17:33.252Z,11.32
2022-12-09T01:22:39.051Z,14.27
2022-12-09T01:27:45.069Z,10.63
2022-12-09T01:32:50.966Z,11.55
2022-12-09T01:37:56.851Z,14.60
2022-12-09T01:43:02.578Z,14.05
2022-12-09T01:48:16.157Z,12.80
2022-12-09T01:53:28.726Z,9.75
2022-12-09T01:58:34.758Z,13.77
2022-12-09T02:03:40.817Z,9.85
2022-12-09T02:08:48.335Z,6.82
2022-12-09T02:14:15.282Z,11.93
2022-12-09T02:19:45.266Z,7.75
2022-12-09T02:25:32.698Z,9.98
2022-12-09T02:31:03.587Z,10.82
2022-12-09T02:36:18.993Z,10.13
2022-12-09T02:41:31.681Z,10.98
2022-12-09T02:46:42.591Z,6.45
2022-12-09T02:51:52.396Z,10.73
2022-12-09T02:57:05.778Z,10.02
2022-12-09T03:02:32.709Z,9.23
2022-12-09T03:07:57.535Z,10.73
2022-12-09T03:13:17.010Z,13.80
2022-12-09T03:18:29.637Z,8.90
2022-12-09T03:23:36.983Z,12.70
2022-12-09T03:28:50.700Z,9.65
2022-12-09T03:34:05.034Z,6.70
2022-12-09T03:39:16.189Z,7.25
2022-12-09T03:44:54.402Z,7.82
2022-12-09T03:50:00.563Z,11.82
2022-12-09T03:55:28.385Z,12.48
2022-12-09T04:00:38.301Z,12.35
2022-12-09T04:10:49.299Z,13.02
2022-12-09T04:15:54.937Z,9.75
2022-12-09T04:21:01.016Z,12.90
2022-12-09T04:26:07.563Z,11.45
2022-12-09T04:31:14.597Z,12.82
2022-12-09T04:36:21.818Z,12.30
2022-12-09T04:41:29.801Z,11.85
2022-12-09T04:46:34.346Z,10.40
2022-12-09T04:51:40.213Z,13.85
2022-12-09T04:56:45.619Z,10.35
2022-12-09T05:01:54.107Z,11.30
2022-12-09T05:07:01.549Z,12.88
2022-12-09T05:12:06.939Z,14.25
2022-12-09T05:17:13.011Z,8.30
2022-12-09T05:22:19.051Z,14.55
2022-12-09T05:27:23.965Z,11.68
2022-12-09T05:32:31.501Z,11.55
2022-12-09T05:37:36.261Z,10.35
2022-12-09T05:42:42.152Z,12.60
2022-12-09T05:47:47.096Z,13.27
2022-12-09T05:52:51.730Z,12.23
2022-12-09T05:57:56.225Z,11.85
2022-12-09T06:03:01.070Z,7.72
2022-12-09T06:08:07.470Z,14.80
2022-12-09T06:13:12.806Z,12.55
2022-12-09T06:18:17.379Z,8.63
2022-12-09T06:23:22.016Z,10.45
2022-12-09T06:28:26.765Z,10.50
2022-12-09T06:33:54.134Z,9.02
2022-12-09T06:38:57.016Z,11.85
2022-12-09T06:44:02.192Z,10.15
2022-12-09T06:49:07.266Z,9.98
2022-12-09T06:54:11.758Z,9.38
2022-12-09T06:59:16.175Z,8.70
2022-12-09T07:04:20.788Z,12.27
2022-12-09T07:09:26.063Z,7.78
2022-12-09T07:14:30.731Z,6.82
2022-12-09T07:19:35.603Z,10.55
2022-12-09T07:24:41.279Z,13.50
2022-12-09T07:29:45.887Z,6.78
2022-12-09T07:34:50.595Z,8.57
2022-12-09T07:39:55.391Z,7.97
2022-12-09T07:44:59.594Z,9.05
2022-12-09T07:50:06.696Z,9.35
2022-12-09T07:55:12.490Z,9.07
2022-12-09T08:00:17.749Z,10.23
2022-12-09T08:05:22.663Z,8.30
2022-12-09T08:10:27.396Z,7.50
2022-12-09T08:15:32.750Z,7.75
2022-12-09T08:20:38.559Z,6.38
2022-12-09T08:25:43.292Z,10.20
2022-12-09T08:30:48.361Z,8.25
2022-12-09T08:35:52.961Z,5.57
2022-12-09T08:40:57.297Z,7.25
2022-12-09T08:46:02.483Z,8.65
2022-12-09T08:51:08.562Z,8.15
2022-12-09T08:56:15.495Z,12.80
2022-12-09T09:01:25.837Z,8.95
2022-12-09T09:06:30.486Z,8.70
2022-12-09T09:11:35.752Z,14.00
2022-12-09T09:16:42.260Z,10.25
2022-12-09T09:21:47.293Z,13.10
2022-12-09T09:26:53.156Z,16.23
2022-12-09T09:31:58.503Z,13.05
2022-12-09T09:37:03.644Z,13.73
2022-12-09T09:42:14.069Z,17.83
2022-12-09T09:47:20.129Z,13.30
2022-12-09T09:52:27.558Z,13.30
2022-12-09T09:57:45.753Z,16.25
2022-12-09T10:03:31.607Z,17.17
2022-12-09T10:09:11.544Z,17.20
2022-12-09T10:14:23.382Z,16.88
2022-12-09T10:19:39.332Z,17.15
2022-12-09T10:30:03.086Z,15.10
2022-12-09T10:35:15.899Z,19.05
2022-12-09T10:40:39.518Z,31.50
2022-12-09T10:51:37.422Z,17.08
2022-12-09T10:57:04.344Z,27.15
2022-12-09T11:02:11.943Z,32.53
2022-12-09T11:07:18.204Z,20.00
2022-12-09T11:12:33.358Z,17.92
2022-12-09T11:17:56.078Z,32.00
2022-12-09T11:23:15.233Z,17.58
2022-12-09T11:28:20.262Z,30.15
2022-12-09T11:33:34.092Z,16.35
2022-12-09T11:38:42.963Z,14.80
2022-12-09T11:43:53.438Z,13.38
2022-12-09T11:49:03.552Z,17.88
2022-12-09T11:54:23.710Z,14.95
2022-12-09T11:59:38.429Z,17.25
2022-12-09T12:05:10.195Z,16.27
2022-12-09T12:10:29.710Z,15.45
2022-12-09T12:15:46.039Z,13.10
2022-12-09T12:20:59.145Z,16.50
2022-12-09T12:26:19.236Z,15.32
2022-12-09T12:32:01.532Z,14.05
2022-12-09T12:37:36.246Z,15.75
2022-12-09T12:48:34.185Z,20.25
2022-12-09T12:54:09.880Z,12.77
2022-12-09T12:59:32.883Z,13.23
2022-12-09T13:04:52.523Z,14.13
2022-12-09T13:10:03.403Z,16.50
2022-12-09T13:15:14.429Z,13.10
2022-12-09T13:20:49.880Z,13.65
2022-12-09T13:26:11.239Z,16.45
2022-12-09T13:31:18.553Z,11.38
2022-12-09T13:36:30.356Z,16.20
2022-12-09T13:42:01.167Z,14.60
2022-12-09T13:47:26.920Z,12.75
2022-12-09T13:52:46.280Z,11.55
2022-12-09T13:58:21.098Z,10.27
2022-12-09T14:08:49.672Z,11.27
2022-12-09T14:14:24.867Z,13.43
2022-12-09T14:19:44.242Z,9.32
2022-12-09T14:25:29.877Z,9.95
2022-12-09T14:30:35.271Z,11.77
2022-12-09T14:35:49.906Z,11.48
2022-12-09T14:41:38.559Z,12.45
2022-12-09T14:47:13.652Z,12.15
2022-12-09T14:52:32.691Z,8.63
2022-12-09T14:57:46.644Z,15.88
2022-12-09T15:03:23.446Z,8.50
2022-12-09T15:08:29.341Z,7.80
2022-12-09T15:13:36.823Z,8.95
2022-12-09T15:18:44.994Z,7.35
2022-12-09T15:23:50.836Z,9.57
2022-12-09T15:29:00.029Z,11.15
2022-12-09T15:34:26.244Z,7.88
2022-12-09T15:39:51.405Z,7.70
2022-12-09T15:45:11.862Z,7.68
2022-12-09T15:50:31.771Z,10.63
2022-12-09T15:55:51.414Z,10.02
2022-12-09T16:00:58.040Z,11.88
2022-12-09T16:06:10.773Z,11.90
2022-12-09T16:11:40.116Z,11.40
2022-12-09T16:17:02.777Z,9.73
2022-12-09T16:22:30.698Z,12.23
2022-12-09T16:27:42.735Z,12.15
2022-12-09T16:33:00.302Z,12.25
2022-12-09T16:38:12.448Z,10.40
2022-12-09T16:43:18.439Z,14.00
2022-12-09T16:48:25.975Z,15.30
2022-12-09T16:53:35.189Z,12.23
2022-12-09T16:58:40.943Z,24.63
2022-12-09T17:03:57.120Z,22.05
2022-12-09T17:09:02.906Z,24.98
2022-12-09T17:14:08.822Z,13.05
2022-12-09T17:19:14.603Z,11.48
2022-12-09T17:24:21.511Z,14.05
2022-12-09T17:29:27.196Z,12.60
2022-12-09T17:34:32.749Z,14.43
2022-12-09T17:39:38.531Z,14.68
2022-12-09T17:44:44.217Z,11.38
2022-12-09T17:49:49.485Z,15.48
2022-12-09T17:54:55.186Z,12.98
2022-12-09T18:00:00.809Z,12.18
2022-12-09T18:05:06.791Z,13.85
2022-12-09T18:10:12.700Z,15.52
2022-12-09T18:15:19.529Z,14.00
2022-12-09T18:20:25.283Z,12.52
2022-12-09T18:25:30.998Z,13.68
2022-12-09T18:30:38.741Z,15.15
2022-12-09T18:35:44.673Z,13.57
2022-12-09T18:41:03.705Z,13.35
2022-12-09T18:46:15.313Z,12.50
2022-12-09T18:51:22.284Z,11.52
2022-12-09T18:56:28.970Z,10.20
2022-12-09T19:01:36.174Z,8.23
2022-12-09T19:06:44.572Z,13.85
2022-12-09T19:11:51.481Z,10.43
2022-12-09T19:16:57.232Z,8.88
2022-12-09T19:22:04.321Z,7.70
2022-12-09T19:27:10.131Z,12.13
2022-12-09T19:32:50.839Z,7.32
2022-12-09T19:37:43.133Z,9.05
2022-12-09T19:42:48.947Z,10.35
2022-12-09T19:47:54.545Z,9.73
2022-12-09T19:53:00.229Z,11.90
2022-12-09T19:58:06.532Z,7.90
2022-12-09T20:03:12.186Z,7.28
2022-12-09T20:08:17.859Z,14.48
2022-12-09T20:13:28.631Z,10.00
2022-12-09T20:18:39.046Z,14.60
2022-12-09T20:23:46.047Z,10.35
2022-12-09T20:28:54.602Z,7.60
2022-12-09T20:34:05.133Z,6.30
2022-12-09T20:39:16.380Z,6.40
2022-12-09T20:44:22.058Z,7.15
2022-12-09T20:49:28.300Z,7.68
2022-12-09T20:54:33.747Z,6.38
2022-12-09T20:59:39.436Z,6.45
2022-12-09T21:04:46.527Z,5.32
2022-12-09T21:09:51.731Z,7.65
2022-12-09T21:14:57.474Z,4.15
2022-12-09T21:20:03.159Z,3.70
2022-12-09T21:25:10.042Z,4.30
2022-12-09T21:30:15.590Z,4.80
2022-12-09T21:35:21.192Z,5.45
2022-12-09T21:40:26.910Z,8.02
2022-12-09T21:45:32.913Z,5.00
2022-12-09T21:50:38.598Z,6.50
2022-12-09T21:55:44.473Z,2.92
2022-12-09T22:00:50.034Z,4.95
2022-12-09T22:05:58.448Z,5.28
2022-12-09T22:11:21.804Z,3.92
2022-12-09T22:16:31.638Z,3.17
2022-12-09T22:21:38.036Z,4.05
2022-12-09T22:26:44.308Z,3.03
2022-12-09T22:31:50.254Z,3.58
2022-12-09T22:36:56.135Z,5.05
2022-12-09T22:42:01.597Z,3.35
2022-12-09T22:47:08.568Z,3.35
2022-12-09T22:52:14.087Z,4.43
2022-12-09T22:57:19.720Z,7.35
2022-12-09T23:02:25.614Z,4.10
2022-12-09T23:07:31.221Z,4.80
2022-12-09T23:12:36.964Z,3.05
2022-12-09T23:17:42.738Z,3.67
2022-12-09T23:22:48.443Z,4.10
2022-12-09T23:27:53.666Z,2.80
2022-12-09T23:32:59.255Z,5.72
2022-12-09T23:38:05.068Z,5.40
2022-12-09T23:43:10.611Z,3.90
2022-12-09T23:48:16.222Z,4.22
2022-12-09T23:53:22.523Z,5.53
2022-12-09T23:58:28.156Z,4.30
